Boris Syromyatnikov — UCUF — position and weather

sailwx.info

Track history (hours):
 
Tides and Currents Weather Stations Pressure Air Temp Water Temp Dewpoint Dewpoint Depression Visibility Wind Speed Wind Dir Waves Ship Positions

Boris Syromyatnikov

Last reported at 2014-Sep-10 23:10 UTC. Time now 2014-Sep-22 06:17 UTC.
Position N 62°16' W 006°11'.
Warning: this ship's position is 11 days out of date.

Length 120 m; beam 19 m.

Type: Fishing. MMSI: 273529800.

Date/timePositionNaut miles runAvg speedWind from/ knotsBaromVisibWave heightAir tempDewpointWater temp
2014-Sep-10 23:10N 62°16' W 006°11'813.9
2014-Sep-10 22:33N 62°09' W 006°20'1312.6
2014-Sep-10 21:33N 62°02' W 006°42'3 2.4
2014-Sep-10 20:31N 61°59' W 006°42'0 0.0
2014-Sep-10 19:28N 61°59' W 006°42'0 0.0
2014-Sep-10 18:31N 61°59' W 006°42'0 0.0
2014-Sep-10 17:28N 61°59' W 006°42'0 0.0
2014-Sep-10 16:31N 61°59' W 006°42'0 0.0
2014-Sep-10 15:31N 61°59' W 006°42'0 0.0
2014-Sep-10 14:16N 61°59' W 006°42'0 0.1
2014-Sep-10 13:28N 61°59' W 006°42'0 0.0
2014-Sep-10 12:31N 61°59' W 006°42'0 0.0
2014-Sep-10 11:25N 61°59' W 006°42'0 0.1
2014-Sep-10 10:34N 61°59' W 006°42'0 0.1
2014-Sep-10 09:16N 61°59' W 006°42'0 0.0
2014-Sep-10 08:04N 61°59' W 006°42'0 0.0
2014-Sep-10 07:30N 61°59' W 006°42'0 0.0
2014-Sep-10 06:25N 61°59' W 006°42'0 0.0
2014-Sep-10 05:13N 61°59' W 006°42'0 0.0
2014-Sep-10 03:33N 61°59' W 006°42'0 0.1
2014-Sep-10 02:31N 61°59' W 006°42'0 0.0
2014-Sep-10 01:24N 61°59' W 006°42'0 0.0
2014-Sep-10 00:27N 61°59' W 006°42'0 0.0
2014-Sep-09 23:33N 61°59' W 006°42'0 0.0
2014-Sep-09 22:30N 61°59' W 006°42'0 0.1
2014-Sep-09 21:27N 61°59' W 006°42'0 0.0
2014-Sep-09 20:33N 61°59' W 006°42'0 0.0
2014-Sep-09 19:33N 61°59' W 006°42'0 0.0
2014-Sep-09 18:33N 61°59' W 006°42'0 0.0
2014-Sep-09 17:33N 61°59' W 006°42'0 0.0
2014-Sep-09 16:27N 61°59' W 006°42'0 0.0
2014-Sep-09 15:33N 61°59' W 006°42'0 0.0
2014-Sep-09 14:27N 61°59' W 006°42'0 0.1
2014-Sep-09 13:18N 61°59' W 006°42'0 0.1
2014-Sep-09 12:30N 61°59' W 006°42'0 0.1
2014-Sep-09 11:30N 61°59' W 006°42'0 0.0
2014-Sep-09 10:30N 61°59' W 006°42'0 0.1
2014-Sep-09 09:15N 61°59' W 006°42'0 0.0
2014-Sep-09 08:24N 61°59' W 006°42'0 0.0
2014-Sep-09 07:33N 61°59' W 006°42'0 0.0
2014-Sep-09 06:30N 61°59' W 006°42'0 0.0
2014-Sep-09 05:33N 61°59' W 006°42'0 0.0
2014-Sep-09 04:30N 61°59' W 006°42'0 0.0
2014-Sep-09 03:30N 61°59' W 006°42'0 0.0
2014-Sep-09 02:33N 61°59' W 006°42'0 0.0
2014-Sep-09 01:33N 61°59' W 006°42'0 0.0
2014-Sep-09 00:33N 61°59' W 006°42'0 0.1
2014-Sep-08 23:33N 61°59' W 006°42'0 0.0
2014-Sep-08 22:33N 61°59' W 006°42'4 4.0
2014-Sep-08 21:33N 62°03' W 006°40'1010.2
2014-Sep-08 20:34N 62°13' W 006°41'3 3.1
2014-Sep-08 19:31N 62°14' W 006°48'0 0.0
2014-Sep-08 18:28N 62°14' W 006°48'0 0.0
2014-Sep-08 17:22N 62°14' W 006°48'0 0.0
2014-Sep-08 16:31N 62°14' W 006°48'0 0.0
2014-Sep-08 15:31N 62°14' W 006°48'0 0.0
2014-Sep-08 14:31N 62°14' W 006°48'1 0.8
2014-Sep-08 13:34N 62°14' W 006°46'8 8.0
2014-Sep-08 12:34N 62°08' W 006°33'7 7.0
2014-Sep-08 11:33N 62°03' W 006°43'4 3.8
2014-Sep-08 10:32N 62°07' W 006°44'0 0.0
2014-Sep-08 09:32N 62°07' W 006°44'0 0.0
2014-Sep-08 08:32N 62°07' W 006°44'0 0.0
2014-Sep-08 07:29N 62°07' W 006°44'0 0.0
2014-Sep-08 06:32N 62°07' W 006°44'0 0.0
2014-Sep-08 05:32N 62°07' W 006°44'0 0.0
2014-Sep-08 04:32N 62°07' W 006°44'0 0.0
2014-Sep-08 03:32N 62°07' W 006°44'0 0.0
2014-Sep-08 02:32N 62°07' W 006°44'0 0.0
2014-Sep-08 01:32N 62°07' W 006°44'0 0.0
2014-Sep-08 00:32N 62°07' W 006°44'0 0.0
2014-Sep-07 23:29N 62°07' W 006°44'0 0.0
2014-Sep-07 22:32N 62°07' W 006°44'0 0.0
2014-Sep-07 21:32N 62°07' W 006°44'0 0.0
2014-Sep-07 20:32N 62°07' W 006°44'0 0.0
2014-Sep-07 19:32N 62°07' W 006°44'0 0.0
2014-Sep-07 18:32N 62°07' W 006°44'0 0.0
2014-Sep-07 17:32N 62°07' W 006°44'0 0.0
2014-Sep-07 16:32N 62°07' W 006°44'0 0.0
2014-Sep-07 15:32N 62°07' W 006°44'0 0.0
2014-Sep-07 14:32N 62°07' W 006°44'0 0.0
2014-Sep-07 13:32N 62°07' W 006°44'0 0.0
2014-Sep-07 12:32N 62°07' W 006°44'0 0.0
2014-Sep-07 11:32N 62°07' W 006°44'0 0.0
2014-Sep-07 10:32N 62°07' W 006°44'0 0.0
2014-Sep-07 09:29N 62°07' W 006°44'0 0.0
2014-Sep-07 08:32N 62°07' W 006°44'0 0.0
2014-Sep-07 07:32N 62°07' W 006°44'0 0.0
2014-Sep-07 06:32N 62°07' W 006°44'0 0.0
2014-Sep-07 05:29N 62°07' W 006°44'0 0.0
2014-Sep-07 04:32N 62°07' W 006°44'0 0.0
2014-Sep-07 03:32N 62°07' W 006°44'0 0.0
2014-Sep-07 02:32N 62°07' W 006°44'0 0.0
2014-Sep-07 01:31N 62°07' W 006°44'0 0.0
2014-Sep-07 00:31N 62°07' W 006°44'0 0.0
2014-Sep-06 23:31N 62°07' W 006°44'0 0.0
2014-Sep-06 22:31N 62°07' W 006°44'0 0.0
2014-Sep-06 21:31N 62°07' W 006°44'0 0.0
2014-Sep-06 20:31N 62°07' W 006°44'0 0.0
2014-Sep-06 19:31N 62°07' W 006°44'0 0.0
2014-Sep-06 18:31N 62°07' W 006°44'0 0.0
2014-Sep-06 17:31N 62°07' W 006°44'0 0.0
2014-Sep-06 16:31N 62°07' W 006°44'0 0.0
2014-Sep-06 15:31N 62°07' W 006°44'0 0.0
2014-Sep-06 14:31N 62°07' W 006°44'0 0.0
2014-Sep-06 13:31N 62°07' W 006°44'0 0.0
2014-Sep-06 12:31N 62°07' W 006°44'0 0.0
2014-Sep-06 11:31N 62°07' W 006°44'0 0.0
2014-Sep-06 10:31N 62°07' W 006°44'0 0.0
2014-Sep-06 09:31N 62°07' W 006°44'0 0.0
2014-Sep-06 08:31N 62°07' W 006°44'0 0.0
2014-Sep-06 07:28N 62°07' W 006°44'0 0.0
2014-Sep-06 06:31N 62°07' W 006°44'0 0.0
2014-Sep-06 05:31N 62°07' W 006°44'0 0.0
2014-Sep-06 04:31N 62°07' W 006°44'0 0.0
2014-Sep-06 03:31N 62°07' W 006°44'0 0.0
2014-Sep-06 02:31N 62°07' W 006°44'0 0.0
2014-Sep-06 01:28N 62°07' W 006°44'0 0.0
2014-Sep-06 00:31N 62°07' W 006°44'0 0.0
2014-Sep-05 23:31N 62°07' W 006°44'0 0.0
2014-Sep-05 22:31N 62°07' W 006°44'0 0.0
2014-Sep-05 21:31N 62°07' W 006°44'0 0.0
2014-Sep-05 20:31N 62°07' W 006°44'0 0.0
2014-Sep-05 19:31N 62°07' W 006°44'0 0.0
2014-Sep-05 18:31N 62°07' W 006°44'0 0.0
2014-Sep-05 17:31N 62°07' W 006°44'0 0.0
2014-Sep-05 16:31N 62°07' W 006°44'0 0.0
2014-Sep-05 15:31N 62°07' W 006°44'0 0.0
2014-Sep-05 14:31N 62°07' W 006°44'0 0.0
2014-Sep-05 13:31N 62°07' W 006°44'0 0.0
2014-Sep-05 12:31N 62°07' W 006°44'0 0.0
2014-Sep-05 11:31N 62°07' W 006°44'0 0.0
2014-Sep-05 10:31N 62°07' W 006°44'0 0.0
2014-Sep-05 09:31N 62°07' W 006°44'0 0.0
2014-Sep-05 08:34N 62°07' W 006°44'0 0.0
2014-Sep-05 07:33N 62°07' W 006°44'0 0.0
2014-Sep-05 06:33N 62°07' W 006°44'0 0.0
2014-Sep-05 05:33N 62°07' W 006°44'0 0.0
2014-Sep-05 04:33N 62°07' W 006°44'0 0.0
2014-Sep-05 03:33N 62°07' W 006°44'0 0.0
2014-Sep-05 02:33N 62°07' W 006°44'0 0.0
2014-Sep-05 01:33N 62°07' W 006°44'0 0.0
2014-Sep-05 00:33N 62°07' W 006°44'0 0.0
2014-Sep-04 23:33N 62°07' W 006°44'0 0.0
2014-Sep-04 22:30N 62°07' W 006°44'0 0.0
2014-Sep-04 21:34N 62°07' W 006°44'0 0.0
2014-Sep-04 20:34N 62°07' W 006°44'0 0.0
2014-Sep-04 19:33N 62°07' W 006°44'0 0.0
2014-Sep-04 18:33N 62°07' W 006°44'0 0.0
2014-Sep-04 17:34N 62°07' W 006°44'0 0.0
2014-Sep-04 16:34N 62°07' W 006°44'0 0.0
2014-Sep-04 15:34N 62°07' W 006°44'0 0.0
2014-Sep-04 14:34N 62°07' W 006°44'0 0.0
2014-Sep-04 13:33N 62°07' W 006°44'0 0.0
2014-Sep-04 12:33N 62°07' W 006°44'0 0.0
2014-Sep-04 11:34N 62°07' W 006°44'0 0.0
2014-Sep-04 10:34N 62°07' W 006°44'0 0.0
2014-Sep-04 09:34N 62°07' W 006°44'0 0.0
2014-Sep-04 08:33N 62°07' W 006°44'0 0.2
2014-Sep-04 07:34N 62°07' W 006°44'4 4.5
2014-Sep-04 06:34N 62°03' W 006°41'3 2.7
2014-Sep-04 05:34N 62°03' W 006°35'8 8.3
2014-Sep-04 04:33N 62°05' W 006°18'8 8.3
2014-Sep-04 03:33N 62°08' W 006°01'9 8.7
2014-Sep-04 02:32N 62°11' W 005°43'13 6.0
2014-Sep-04 00:18N 62°17' W 005°17'1013.3
2014-Sep-03 23:34N 62°17' W 005°39'  
Track history (hours):
 
Tides and Currents Weather Stations Pressure Air Temp Water Temp Dewpoint Dewpoint Depression Visibility Wind Speed Wind Dir Waves Ship Positions

Boris Syromyatnikov

Last reported at 2014-Sep-10 23:10 UTC. Time now 2014-Sep-22 06:17 UTC.
Position N 62°16' W 006°11'.
Warning: this ship's position is 11 days out of date.

Length 120 m; beam 19 m.

Type: Fishing. MMSI: 273529800.

Date/timePositionNaut miles runAvg speedWind from/ knotsBaromVisibWave heightAir tempDewpointWater temp
2014-Sep-10 23:10N 62°16' W 006°11'813.9
2014-Sep-10 22:33N 62°09' W 006°20'1312.6
2014-Sep-10 21:33N 62°02' W 006°42'3 2.4
2014-Sep-10 20:31N 61°59' W 006°42'0 0.0
2014-Sep-10 19:28N 61°59' W 006°42'0 0.0
2014-Sep-10 18:31N 61°59' W 006°42'0 0.0
2014-Sep-10 17:28N 61°59' W 006°42'0 0.0
2014-Sep-10 16:31N 61°59' W 006°42'0 0.0
2014-Sep-10 15:31N 61°59' W 006°42'0 0.0
2014-Sep-10 14:16N 61°59' W 006°42'0 0.1
2014-Sep-10 13:28N 61°59' W 006°42'0 0.0
2014-Sep-10 12:31N 61°59' W 006°42'0 0.0
2014-Sep-10 11:25N 61°59' W 006°42'0 0.1
2014-Sep-10 10:34N 61°59' W 006°42'0 0.1
2014-Sep-10 09:16N 61°59' W 006°42'0 0.0
2014-Sep-10 08:04N 61°59' W 006°42'0 0.0
2014-Sep-10 07:30N 61°59' W 006°42'0 0.0
2014-Sep-10 06:25N 61°59' W 006°42'0 0.0
2014-Sep-10 05:13N 61°59' W 006°42'0 0.0
2014-Sep-10 03:33N 61°59' W 006°42'0 0.1
2014-Sep-10 02:31N 61°59' W 006°42'0 0.0
2014-Sep-10 01:24N 61°59' W 006°42'0 0.0
2014-Sep-10 00:27N 61°59' W 006°42'0 0.0
2014-Sep-09 23:33N 61°59' W 006°42'0 0.0
2014-Sep-09 22:30N 61°59' W 006°42'0 0.1
2014-Sep-09 21:27N 61°59' W 006°42'0 0.0
2014-Sep-09 20:33N 61°59' W 006°42'0 0.0
2014-Sep-09 19:33N 61°59' W 006°42'0 0.0
2014-Sep-09 18:33N 61°59' W 006°42'0 0.0
2014-Sep-09 17:33N 61°59' W 006°42'0 0.0
2014-Sep-09 16:27N 61°59' W 006°42'0 0.0
2014-Sep-09 15:33N 61°59' W 006°42'0 0.0
2014-Sep-09 14:27N 61°59' W 006°42'0 0.1
2014-Sep-09 13:18N 61°59' W 006°42'0 0.1
2014-Sep-09 12:30N 61°59' W 006°42'0 0.1
2014-Sep-09 11:30N 61°59' W 006°42'0 0.0
2014-Sep-09 10:30N 61°59' W 006°42'0 0.1
2014-Sep-09 09:15N 61°59' W 006°42'0 0.0
2014-Sep-09 08:24N 61°59' W 006°42'0 0.0
2014-Sep-09 07:33N 61°59' W 006°42'0 0.0
2014-Sep-09 06:30N 61°59' W 006°42'0 0.0
2014-Sep-09 05:33N 61°59' W 006°42'0 0.0
2014-Sep-09 04:30N 61°59' W 006°42'0 0.0
2014-Sep-09 03:30N 61°59' W 006°42'0 0.0
2014-Sep-09 02:33N 61°59' W 006°42'0 0.0
2014-Sep-09 01:33N 61°59' W 006°42'0 0.0
2014-Sep-09 00:33N 61°59' W 006°42'0 0.1
2014-Sep-08 23:33N 61°59' W 006°42'0 0.0
2014-Sep-08 22:33N 61°59' W 006°42'4 4.0
2014-Sep-08 21:33N 62°03' W 006°40'1010.2
2014-Sep-08 20:34N 62°13' W 006°41'3 3.1
2014-Sep-08 19:31N 62°14' W 006°48'0 0.0
2014-Sep-08 18:28N 62°14' W 006°48'0 0.0
2014-Sep-08 17:22N 62°14' W 006°48'0 0.0
2014-Sep-08 16:31N 62°14' W 006°48'0 0.0
2014-Sep-08 15:31N 62°14' W 006°48'0 0.0
2014-Sep-08 14:31N 62°14' W 006°48'1 0.8
2014-Sep-08 13:34N 62°14' W 006°46'8 8.0
2014-Sep-08 12:34N 62°08' W 006°33'7 7.0
2014-Sep-08 11:33N 62°03' W 006°43'4 3.8
2014-Sep-08 10:32N 62°07' W 006°44'0 0.0
2014-Sep-08 09:32N 62°07' W 006°44'0 0.0
2014-Sep-08 08:32N 62°07' W 006°44'0 0.0
2014-Sep-08 07:29N 62°07' W 006°44'0 0.0
2014-Sep-08 06:32N 62°07' W 006°44'0 0.0
2014-Sep-08 05:32N 62°07' W 006°44'0 0.0
2014-Sep-08 04:32N 62°07' W 006°44'0 0.0
2014-Sep-08 03:32N 62°07' W 006°44'0 0.0
2014-Sep-08 02:32N 62°07' W 006°44'0 0.0
2014-Sep-08 01:32N 62°07' W 006°44'0 0.0
2014-Sep-08 00:32N 62°07' W 006°44'0 0.0
2014-Sep-07 23:29N 62°07' W 006°44'0 0.0
2014-Sep-07 22:32N 62°07' W 006°44'0 0.0
2014-Sep-07 21:32N 62°07' W 006°44'0 0.0
2014-Sep-07 20:32N 62°07' W 006°44'0 0.0
2014-Sep-07 19:32N 62°07' W 006°44'0 0.0
2014-Sep-07 18:32N 62°07' W 006°44'0 0.0
2014-Sep-07 17:32N 62°07' W 006°44'0 0.0
2014-Sep-07 16:32N 62°07' W 006°44'0 0.0
2014-Sep-07 15:32N 62°07' W 006°44'0 0.0
2014-Sep-07 14:32N 62°07' W 006°44'0 0.0
2014-Sep-07 13:32N 62°07' W 006°44'0 0.0
2014-Sep-07 12:32N 62°07' W 006°44'0 0.0
2014-Sep-07 11:32N 62°07' W 006°44'0 0.0
2014-Sep-07 10:32N 62°07' W 006°44'0 0.0
2014-Sep-07 09:29N 62°07' W 006°44'0 0.0
2014-Sep-07 08:32N 62°07' W 006°44'0 0.0
2014-Sep-07 07:32N 62°07' W 006°44'0 0.0
2014-Sep-07 06:32N 62°07' W 006°44'0 0.0
2014-Sep-07 05:29N 62°07' W 006°44'0 0.0
2014-Sep-07 04:32N 62°07' W 006°44'0 0.0
2014-Sep-07 03:32N 62°07' W 006°44'0 0.0
2014-Sep-07 02:32N 62°07' W 006°44'0 0.0
2014-Sep-07 01:31N 62°07' W 006°44'0 0.0
2014-Sep-07 00:31N 62°07' W 006°44'0 0.0
2014-Sep-06 23:31N 62°07' W 006°44'0 0.0
2014-Sep-06 22:31N 62°07' W 006°44'0 0.0
2014-Sep-06 21:31N 62°07' W 006°44'0 0.0
2014-Sep-06 20:31N 62°07' W 006°44'0 0.0
2014-Sep-06 19:31N 62°07' W 006°44'0 0.0
2014-Sep-06 18:31N 62°07' W 006°44'0 0.0
2014-Sep-06 17:31N 62°07' W 006°44'0 0.0
2014-Sep-06 16:31N 62°07' W 006°44'0 0.0
2014-Sep-06 15:31N 62°07' W 006°44'0 0.0
2014-Sep-06 14:31N 62°07' W 006°44'0 0.0
2014-Sep-06 13:31N 62°07' W 006°44'0 0.0
2014-Sep-06 12:31N 62°07' W 006°44'0 0.0
2014-Sep-06 11:31N 62°07' W 006°44'0 0.0
2014-Sep-06 10:31N 62°07' W 006°44'0 0.0
2014-Sep-06 09:31N 62°07' W 006°44'0 0.0
2014-Sep-06 08:31N 62°07' W 006°44'0 0.0
2014-Sep-06 07:28N 62°07' W 006°44'0 0.0
2014-Sep-06 06:31N 62°07' W 006°44'0 0.0
2014-Sep-06 05:31N 62°07' W 006°44'0 0.0
2014-Sep-06 04:31N 62°07' W 006°44'0 0.0
2014-Sep-06 03:31N 62°07' W 006°44'0 0.0
2014-Sep-06 02:31N 62°07' W 006°44'0 0.0
2014-Sep-06 01:28N 62°07' W 006°44'0 0.0
2014-Sep-06 00:31N 62°07' W 006°44'0 0.0
2014-Sep-05 23:31N 62°07' W 006°44'0 0.0
2014-Sep-05 22:31N 62°07' W 006°44'0 0.0
2014-Sep-05 21:31N 62°07' W 006°44'0 0.0
2014-Sep-05 20:31N 62°07' W 006°44'0 0.0
2014-Sep-05 19:31N 62°07' W 006°44'0 0.0
2014-Sep-05 18:31N 62°07' W 006°44'0 0.0
2014-Sep-05 17:31N 62°07' W 006°44'0 0.0
2014-Sep-05 16:31N 62°07' W 006°44'0 0.0
2014-Sep-05 15:31N 62°07' W 006°44'0 0.0
2014-Sep-05 14:31N 62°07' W 006°44'0 0.0
2014-Sep-05 13:31N 62°07' W 006°44'0 0.0
2014-Sep-05 12:31N 62°07' W 006°44'0 0.0
2014-Sep-05 11:31N 62°07' W 006°44'0 0.0
2014-Sep-05 10:31N 62°07' W 006°44'0 0.0
2014-Sep-05 09:31N 62°07' W 006°44'0 0.0
2014-Sep-05 08:34N 62°07' W 006°44'0 0.0
2014-Sep-05 07:33N 62°07' W 006°44'0 0.0
2014-Sep-05 06:33N 62°07' W 006°44'0 0.0
2014-Sep-05 05:33N 62°07' W 006°44'0 0.0
2014-Sep-05 04:33N 62°07' W 006°44'0 0.0
2014-Sep-05 03:33N 62°07' W 006°44'0 0.0
2014-Sep-05 02:33N 62°07' W 006°44'0 0.0
2014-Sep-05 01:33N 62°07' W 006°44'0 0.0
2014-Sep-05 00:33N 62°07' W 006°44'0 0.0
2014-Sep-04 23:33N 62°07' W 006°44'0 0.0
2014-Sep-04 22:30N 62°07' W 006°44'0 0.0
2014-Sep-04 21:34N 62°07' W 006°44'0 0.0
2014-Sep-04 20:34N 62°07' W 006°44'0 0.0
2014-Sep-04 19:33N 62°07' W 006°44'0 0.0
2014-Sep-04 18:33N 62°07' W 006°44'0 0.0
2014-Sep-04 17:34N 62°07' W 006°44'0 0.0
2014-Sep-04 16:34N 62°07' W 006°44'0 0.0
2014-Sep-04 15:34N 62°07' W 006°44'0 0.0
2014-Sep-04 14:34N 62°07' W 006°44'0 0.0
2014-Sep-04 13:33N 62°07' W 006°44'0 0.0
2014-Sep-04 12:33N 62°07' W 006°44'0 0.0
2014-Sep-04 11:34N 62°07' W 006°44'0 0.0
2014-Sep-04 10:34N 62°07' W 006°44'0 0.0
2014-Sep-04 09:34N 62°07' W 006°44'0 0.0
2014-Sep-04 08:33N 62°07' W 006°44'0 0.2
2014-Sep-04 07:34N 62°07' W 006°44'4 4.5
2014-Sep-04 06:34N 62°03' W 006°41'3 2.7
2014-Sep-04 05:34N 62°03' W 006°35'8 8.3
2014-Sep-04 04:33N 62°05' W 006°18'8 8.3
2014-Sep-04 03:33N 62°08' W 006°01'9 8.7
2014-Sep-04 02:32N 62°11' W 005°43'13 6.0
2014-Sep-04 00:18N 62°17' W 005°17'1013.3
2014-Sep-03 23:34N 62°17' W 005°39'  

Dump ship's entire track history